Time;durP1;ratioP1;P1;durP2;ratioP2;P2;SDS_P1;SDS_P2;PMS_P1;PMS_P2;Temp;Humidity;BMP_temperature;BMP_pressure;BME280_temperature;BME280_humidity;BME280_pressure;Samples;Min_cycle;Max_cycle;Signal;HPM_P1;HPM_P2
2023/12/18 00:01:01;;;;;;;19.73;8.85;;;4.30;99.90;;;;;;5034131;28;20013;-61
2023/12/18 00:03:29;;;;;;;28.73;9.32;;;4.30;99.90;;;;;;5036020;28;20026;-59
2023/12/18 00:05:55;;;;;;;24.58;9.63;;;4.30;99.90;;;;;;5044742;28;20033;-60
2023/12/18 00:08:20;;;;;;;19.70;9.75;;;4.30;99.90;;;;;;5042443;28;20028;-59
2023/12/18 00:10:46;;;;;;;22.40;9.30;;;4.30;99.90;;;;;;5039946;28;20034;-62
2023/12/18 00:13:11;;;;;;;17.90;8.75;;;4.20;99.90;;;;;;5044456;28;20420;-60
2023/12/18 00:15:37;;;;;;;28.08;10.45;;;4.20;99.90;;;;;;5036237;28;20528;-60
2023/12/18 00:18:03;;;;;;;26.73;9.07;;;4.20;99.90;;;;;;5044496;28;20030;-62
2023/12/18 00:20:28;;;;;;;21.20;8.75;;;4.30;99.90;;;;;;5042509;28;20078;-60
2023/12/18 00:22:54;;;;;;;25.70;9.68;;;4.20;99.90;;;;;;5042382;28;20395;-61
2023/12/18 00:25:19;;;;;;;24.10;9.63;;;4.20;99.90;;;;;;5042401;28;20094;-56
2023/12/18 00:27:45;;;;;;;27.60;10.18;;;4.20;99.90;;;;;;5047157;28;20021;-60
2023/12/18 00:30:11;;;;;;;19.73;9.95;;;4.20;99.90;;;;;;5046975;28;20028;-60
2023/12/18 00:32:36;;;;;;;19.17;9.52;;;4.00;99.90;;;;;;5035245;28;20076;-57
2023/12/18 00:35:02;;;;;;;25.20;9.77;;;4.00;99.90;;;;;;5035192;28;20027;-61
2023/12/18 00:37:27;;;;;;;18.55;8.55;;;3.70;99.90;;;;;;5037740;28;20351;-60
2023/12/18 00:39:53;;;;;;;18.65;8.45;;;3.60;99.90;;;;;;5046616;28;20524;-60
2023/12/18 00:42:18;;;;;;;16.65;7.85;;;3.40;99.90;;;;;;5050679;28;20025;-59
2023/12/18 00:44:44;;;;;;;15.30;7.97;;;3.40;99.90;;;;;;5049389;28;20028;-61
2023/12/18 00:47:09;;;;;;;17.25;7.60;;;3.30;99.90;;;;;;5055465;28;20120;-58
2023/12/18 00:49:35;;;;;;;22.45;8.45;;;3.30;99.90;;;;;;5053312;28;20499;-59
2023/12/18 00:52:00;;;;;;;24.58;9.00;;;3.30;99.90;;;;;;5053398;28;20553;-60
2023/12/18 00:54:26;;;;;;;22.52;9.57;;;3.40;99.90;;;;;;5048523;28;20021;-59
2023/12/18 00:56:51;;;;;;;24.88;9.00;;;3.40;99.90;;;;;;5050015;28;20025;-59
2023/12/18 00:59:17;;;;;;;20.63;9.65;;;3.30;99.90;;;;;;5057090;28;20047;-59
2023/12/18 01:01:43;;;;;;;19.42;8.63;;;3.30;99.90;;;;;;5048648;28;20142;-59
2023/12/18 01:04:09;;;;;;;16.65;8.50;;;3.40;99.90;;;;;;5051459;28;20016;-57
2023/12/18 01:06:34;;;;;;;19.40;8.85;;;3.40;99.90;;;;;;5047660;28;20029;-59
2023/12/18 01:09:00;;;;;;;18.58;8.45;;;3.40;99.90;;;;;;5051589;28;20029;-57
2023/12/18 01:11:25;;;;;;;18.90;8.57;;;3.30;99.90;;;;;;5043149;28;20497;-58
2023/12/18 01:13:51;;;;;;;19.58;8.70;;;3.20;99.90;;;;;;5032802;28;20029;-59
2023/12/18 01:16:17;;;;;;;17.55;8.15;;;3.20;99.90;;;;;;5045373;28;20135;-62
2023/12/18 01:18:42;;;;;;;16.35;8.10;;;3.10;99.90;;;;;;5046667;28;20017;-61
2023/12/18 01:21:08;;;;;;;14.57;6.60;;;3.00;99.90;;;;;;5044342;28;20023;-60
2023/12/18 01:23:33;;;;;;;16.25;6.72;;;2.80;99.90;;;;;;5038446;28;20276;-58
2023/12/18 01:25:59;;;;;;;13.05;6.82;;;2.60;99.90;;;;;;5043785;28;20106;-60
2023/12/18 01:28:24;;;;;;;17.58;7.97;;;2.50;99.90;;;;;;5046547;28;20053;-61
2023/12/18 01:30:50;;;;;;;22.95;8.05;;;2.40;99.90;;;;;;5044422;28;20526;-59
2023/12/18 01:33:15;;;;;;;21.60;8.68;;;2.40;99.90;;;;;;5047618;28;20051;-57
2023/12/18 01:35:41;;;;;;;19.50;8.23;;;2.40;99.90;;;;;;5038221;28;20025;-59
2023/12/18 01:38:09;;;;;;;24.30;9.35;;;2.40;99.90;;;;;;5045951;28;20032;-59
2023/12/18 01:40:35;;;;;;;18.42;8.05;;;2.60;99.90;;;;;;5043253;28;20063;-61
2023/12/18 01:43:00;;;;;;;19.80;8.02;;;2.50;99.90;;;;;;5036028;28;20124;-59
2023/12/18 01:45:26;;;;;;;21.20;9.68;;;2.50;99.90;;;;;;5046555;28;20107;-56
2023/12/18 01:47:52;;;;;;;21.75;8.48;;;2.50;99.90;;;;;;5034983;28;20021;-60
2023/12/18 01:50:18;;;;;;;19.55;8.27;;;2.50;99.90;;;;;;5039259;28;20036;-57
2023/12/18 01:52:45;;;;;;;14.88;7.28;;;2.40;99.90;;;;;;5036727;28;20025;-60
2023/12/18 01:55:13;;;;;;;20.20;8.35;;;2.50;99.90;;;;;;5045012;28;20025;-59
2023/12/18 01:57:39;;;;;;;19.23;8.48;;;2.40;99.90;;;;;;5035681;28;20074;-61
2023/12/18 02:00:06;;;;;;;20.75;9.60;;;2.50;99.90;;;;;;5037427;28;20029;-59
2023/12/18 02:02:33;;;;;;;21.63;8.82;;;2.60;99.90;;;;;;5036992;28;20029;-58
2023/12/18 02:04:59;;;;;;;19.02;9.13;;;2.60;99.90;;;;;;5050369;28;20057;-60
2023/12/18 02:07:26;;;;;;;18.27;8.63;;;2.70;99.90;;;;;;5042139;28;20623;-60
2023/12/18 02:09:51;;;;;;;15.43;8.13;;;2.70;99.90;;;;;;5038112;28;20041;-61
2023/12/18 02:12:17;;;;;;;22.50;10.32;;;2.70;99.90;;;;;;5043338;28;20033;-60
2023/12/18 02:14:42;;;;;;;23.02;9.55;;;2.80;99.90;;;;;;5044782;28;20041;-59
2023/12/18 02:17:08;;;;;;;19.05;9.68;;;2.80;99.90;;;;;;5048405;28;20052;-61
2023/12/18 02:19:34;;;;;;;22.55;9.30;;;2.70;99.90;;;;;;5036119;28;20521;-60
2023/12/18 02:21:59;;;;;;;21.65;9.60;;;2.80;99.90;;;;;;5034772;28;20055;-60
2023/12/18 02:24:25;;;;;;;18.52;9.25;;;2.80;99.90;;;;;;5053157;28;20032;-60
2023/12/18 02:26:51;;;;;;;23.80;9.77;;;2.80;99.90;;;;;;5049761;28;21005;-61
2023/12/18 02:29:16;;;;;;;19.77;9.75;;;2.80;99.90;;;;;;5038571;28;20040;-61
2023/12/18 02:31:42;;;;;;;16.80;7.57;;;2.70;99.90;;;;;;5038563;28;20472;-62
2023/12/18 02:34:08;;;;;;;19.23;7.38;;;2.50;99.90;;;;;;5041302;28;20033;-61
2023/12/18 02:36:33;;;;;;;20.45;8.57;;;2.40;99.90;;;;;;5043796;28;20021;-60
2023/12/18 02:38:59;;;;;;;13.00;7.05;;;2.20;99.90;;;;;;5045145;28;20131;-59
2023/12/18 02:41:25;;;;;;;21.70;9.50;;;2.00;99.90;;;;;;5053093;28;20014;-59
2023/12/18 02:43:50;;;;;;;16.85;8.38;;;1.90;99.90;;;;;;5040453;28;20051;-59
2023/12/18 02:46:16;;;;;;;16.90;8.15;;;1.90;99.90;;;;;;5046543;28;20036;-61
2023/12/18 02:48:41;;;;;;;18.77;8.95;;;1.90;99.90;;;;;;5046421;28;20030;-60
2023/12/18 02:51:07;;;;;;;21.95;9.65;;;1.90;99.90;;;;;;5039403;28;20084;-61
2023/12/18 02:53:33;;;;;;;17.98;8.52;;;1.80;99.90;;;;;;5037199;28;20044;-60
2023/12/18 02:55:59;;;;;;;16.95;7.57;;;1.80;99.90;;;;;;5041315;28;20025;-59
2023/12/18 02:58:24;;;;;;;17.45;8.70;;;1.80;99.90;;;;;;5057637;28;20030;-59
2023/12/18 03:00:50;;;;;;;18.98;8.50;;;1.80;99.90;;;;;;5036137;28;20047;-61
2023/12/18 03:03:16;;;;;;;18.88;9.18;;;1.80;99.90;;;;;;5040344;28;20040;-61
2023/12/18 03:05:41;;;;;;;16.48;9.27;;;1.80;99.90;;;;;;5040857;28;20053;-58
2023/12/18 03:08:07;;;;;;;19.13;9.48;;;1.70;99.90;;;;;;5041884;28;20041;-59
2023/12/18 03:10:32;;;;;;;19.80;8.90;;;1.80;99.90;;;;;;5046931;28;20029;-60
2023/12/18 03:12:58;;;;;;;26.52;9.43;;;1.90;99.90;;;;;;5046350;28;20017;-60
2023/12/18 03:15:23;;;;;;;24.05;10.50;;;2.00;99.90;;;;;;5046790;28;20480;-59
2023/12/18 03:17:49;;;;;;;29.42;10.38;;;1.90;99.90;;;;;;5045011;28;20072;-60
2023/12/18 03:20:14;;;;;;;30.00;10.13;;;1.80;99.90;;;;;;5038642;28;20029;-61
2023/12/18 03:22:40;;;;;;;22.38;9.20;;;1.80;99.90;;;;;;5048210;28;20040;-61
2023/12/18 03:25:06;;;;;;;18.33;8.98;;;1.70;99.90;;;;;;5047981;28;20032;-60
2023/12/18 03:27:31;;;;;;;24.80;10.50;;;1.70;99.90;;;;;;5052357;28;20624;-62
2023/12/18 03:29:57;;;;;;;23.65;9.68;;;1.70;99.90;;;;;;5043629;28;20033;-61
2023/12/18 03:32:23;;;;;;;21.83;10.27;;;1.70;99.90;;;;;;5047849;28;20032;-61
2023/12/18 03:34:48;;;;;;;19.95;9.60;;;1.70;99.90;;;;;;5041927;28;20444;-61
2023/12/18 03:37:13;;;;;;;23.55;10.98;;;1.60;99.90;;;;;;5047938;28;20030;-60
2023/12/18 03:39:39;;;;;;;20.58;8.82;;;1.50;99.90;;;;;;5043416;28;20024;-61
2023/12/18 03:42:05;;;;;;;22.23;9.07;;;1.50;99.90;;;;;;5049045;28;20029;-62
2023/12/18 03:44:30;;;;;;;23.05;10.18;;;1.50;99.90;;;;;;5044974;28;20033;-61
2023/12/18 03:46:57;;;;;;;33.63;12.55;;;1.30;99.90;;;;;;5053178;28;20374;-61
2023/12/18 03:49:23;;;;;;;25.80;10.98;;;1.20;99.90;;;;;;5037085;28;20029;-62
2023/12/18 03:51:49;;;;;;;30.55;12.52;;;1.30;99.90;;;;;;5036058;28;20033;-61
2023/12/18 03:54:14;;;;;;;25.73;11.60;;;1.30;99.90;;;;;;5039092;28;20018;-64
2023/12/18 03:56:40;;;;;;;27.40;11.65;;;1.30;99.90;;;;;;5036434;28;20040;-60
2023/12/18 03:59:06;;;;;;;28.52;10.85;;;1.40;99.90;;;;;;5045815;28;20017;-62
2023/12/18 04:01:33;;;;;;;25.02;10.65;;;1.40;99.90;;;;;;5038504;28;20025;-60
2023/12/18 04:03:58;;;;;;;22.83;10.52;;;1.40;99.90;;;;;;5038570;28;20032;-60
2023/12/18 04:06:24;;;;;;;21.83;10.18;;;1.50;99.90;;;;;;5041390;28;20402;-61
2023/12/18 04:08:49;;;;;;;29.85;9.57;;;1.40;99.90;;;;;;5039769;28;20104;-59
2023/12/18 04:11:16;;;;;;;24.15;9.90;;;1.20;99.90;;;;;;5049774;28;20071;-58
2023/12/18 04:13:42;;;;;;;34.40;11.13;;;1.10;99.90;;;;;;5046808;28;20088;-59
2023/12/18 04:16:08;;;;;;;19.58;9.32;;;1.10;99.90;;;;;;5043145;28;20104;-62
2023/12/18 04:18:35;;;;;;;23.90;10.48;;;1.10;99.90;;;;;;5036850;28;20155;-55
2023/12/18 04:21:01;;;;;;;35.42;11.30;;;1.30;99.90;;;;;;5037377;28;20031;-61
2023/12/18 04:23:26;;;;;;;32.42;11.18;;;1.30;99.90;;;;;;5056992;28;20036;-59
2023/12/18 04:25:52;;;;;;;24.85;10.70;;;1.40;99.90;;;;;;5038278;28;20032;-58
2023/12/18 04:28:17;;;;;;;23.80;9.73;;;1.40;99.90;;;;;;5050360;28;20378;-56
2023/12/18 04:30:43;;;;;;;31.13;10.80;;;1.40;99.90;;;;;;5036573;28;20120;-59
2023/12/18 04:33:09;;;;;;;27.75;11.60;;;1.40;99.90;;;;;;5039258;28;20033;-59
2023/12/18 04:35:35;;;;;;;23.30;9.55;;;1.30;99.90;;;;;;5033364;28;20578;-59
2023/12/18 04:38:00;;;;;;;23.45;9.23;;;1.30;99.90;;;;;;5048659;28;20056;-59
2023/12/18 04:40:26;;;;;;;24.42;9.75;;;1.20;99.90;;;;;;5035348;28;20475;-61
2023/12/18 04:42:53;;;;;;;27.92;9.13;;;1.30;99.90;;;;;;5051262;28;20025;-61
2023/12/18 04:45:19;;;;;;;23.50;9.82;;;1.10;99.90;;;;;;5043633;28;20021;-60
2023/12/18 04:47:46;;;;;;;28.92;10.73;;;1.10;99.90;;;;;;5039514;28;20536;-61
2023/12/18 04:50:12;;;;;;;23.00;9.48;;;1.10;99.90;;;;;;5037685;28;20103;-62
2023/12/18 04:52:37;;;;;;;28.52;9.77;;;1.10;99.90;;;;;;5046648;28;20465;-60
2023/12/18 04:55:03;;;;;;;33.33;9.88;;;1.10;99.90;;;;;;5039668;28;20021;-60
2023/12/18 04:57:29;;;;;;;24.20;10.82;;;1.10;99.90;;;;;;5047926;28;20356;-60
2023/12/18 04:59:54;;;;;;;23.42;10.02;;;1.20;99.90;;;;;;5041518;28;20041;-59
2023/12/18 05:02:20;;;;;;;29.20;10.43;;;1.30;99.90;;;;;;5034097;28;20099;-61
2023/12/18 05:04:45;;;;;;;25.27;9.73;;;1.30;99.90;;;;;;5036051;28;20487;-58
2023/12/18 05:07:12;;;;;;;23.35;10.43;;;1.20;99.90;;;;;;5037829;28;20086;-61
2023/12/18 05:09:38;;;;;;;29.95;9.15;;;1.30;99.90;;;;;;5036212;28;20032;-60
2023/12/18 05:12:04;;;;;;;18.88;8.98;;;1.30;99.90;;;;;;5036408;28;20029;-61
2023/12/18 05:14:29;;;;;;;22.38;9.23;;;1.30;99.90;;;;;;5034231;28;20403;-62
2023/12/18 05:16:55;;;;;;;27.60;10.35;;;1.30;99.90;;;;;;5039055;28;20025;-62
2023/12/18 05:19:20;;;;;;;30.55;9.57;;;1.40;99.90;;;;;;5038833;28;21163;-60
2023/12/18 05:21:46;;;;;;;22.38;9.82;;;1.30;99.90;;;;;;5034409;28;20017;-59
2023/12/18 05:24:11;;;;;;;21.77;9.35;;;1.30;99.90;;;;;;5035028;28;20127;-60
2023/12/18 05:26:37;;;;;;;21.33;9.38;;;1.30;99.90;;;;;;5033873;28;20079;-60
2023/12/18 05:29:03;;;;;;;25.27;10.60;;;1.30;99.90;;;;;;5037313;28;20059;-58
2023/12/18 05:31:29;;;;;;;18.63;8.57;;;1.20;99.90;;;;;;5042955;28;20047;-61
2023/12/18 05:33:54;;;;;;;21.17;9.38;;;1.10;99.90;;;;;;5040596;28;20036;-62
2023/12/18 05:36:20;;;;;;;23.40;8.93;;;1.10;99.90;;;;;;5054487;28;20048;-60
2023/12/18 05:38:45;;;;;;;20.75;8.80;;;1.10;99.90;;;;;;5033614;28;20428;-61
2023/12/18 05:41:11;;;;;;;20.77;9.80;;;1.10;99.90;;;;;;5038857;28;20371;-61
2023/12/18 05:43:36;;;;;;;21.90;9.40;;;1.10;99.90;;;;;;5032881;28;20437;-61
2023/12/18 05:46:02;;;;;;;26.10;9.95;;;1.00;99.90;;;;;;5035091;28;20748;-61
2023/12/18 05:48:27;;;;;;;27.42;11.30;;;1.00;99.90;;;;;;5037029;28;20028;-61
2023/12/18 05:50:53;;;;;;;24.95;11.10;;;1.00;99.90;;;;;;5036238;28;20104;-60
2023/12/18 05:53:18;;;;;;;31.08;10.43;;;0.90;99.90;;;;;;5035017;28;20112;-61
2023/12/18 05:55:44;;;;;;;37.15;12.73;;;0.90;99.90;;;;;;5044885;28;20025;-58
2023/12/18 05:58:09;;;;;;;29.40;11.57;;;0.80;99.90;;;;;;5038473;28;20024;-59
2023/12/18 06:00:36;;;;;;;34.75;12.40;;;0.80;99.90;;;;;;5044643;28;20042;-60
2023/12/18 06:03:01;;;;;;;30.23;10.63;;;0.80;99.90;;;;;;5034190;28;20666;-59
2023/12/18 06:05:27;;;;;;;25.85;11.82;;;0.70;99.90;;;;;;5036001;28;20029;-59
2023/12/18 06:07:52;;;;;;;25.45;11.50;;;0.70;99.90;;;;;;5046550;28;20489;-60
2023/12/18 06:10:18;;;;;;;28.05;10.85;;;0.70;99.90;;;;;;5046599;28;20132;-59
2023/12/18 06:12:43;;;;;;;24.67;10.70;;;0.60;99.90;;;;;;5045060;28;20068;-59
2023/12/18 06:15:09;;;;;;;27.05;11.45;;;0.70;99.90;;;;;;5039003;28;20570;-60
2023/12/18 06:17:34;;;;;;;29.45;11.57;;;0.70;99.90;;;;;;5040365;28;20479;-59
2023/12/18 06:20:00;;;;;;;32.40;11.75;;;0.70;99.90;;;;;;5030587;28;20037;-59
2023/12/18 06:22:26;;;;;;;25.35;10.23;;;0.60;99.90;;;;;;5044858;28;20032;-58
2023/12/18 06:24:51;;;;;;;22.80;9.57;;;0.60;99.90;;;;;;5040975;28;20040;-59
2023/12/18 06:27:17;;;;;;;30.63;11.13;;;0.60;99.90;;;;;;5044557;28;20086;-58
2023/12/18 06:29:43;;;;;;;19.77;9.82;;;0.70;99.90;;;;;;5041031;28;20104;-60
2023/12/18 06:32:09;;;;;;;25.30;11.13;;;0.70;99.90;;;;;;5040097;28;20029;-58
2023/12/18 06:34:34;;;;;;;29.83;11.63;;;0.80;99.90;;;;;;5038918;28;20546;-59
2023/12/18 06:37:00;;;;;;;21.80;10.60;;;0.80;99.90;;;;;;5050717;28;20104;-59
2023/12/18 06:39:25;;;;;;;26.50;12.00;;;0.80;99.90;;;;;;5038221;28;20040;-60
2023/12/18 06:41:51;;;;;;;27.95;11.20;;;0.80;99.90;;;;;;5043995;28;20514;-59
2023/12/18 06:44:16;;;;;;;26.73;11.38;;;0.90;99.90;;;;;;5050420;28;20102;-59
2023/12/18 06:46:42;;;;;;;24.77;10.70;;;0.90;99.90;;;;;;5049727;28;20032;-60
2023/12/18 06:49:07;;;;;;;22.52;11.95;;;0.90;99.90;;;;;;5046959;28;20044;-58
2023/12/18 06:51:33;;;;;;;23.10;10.98;;;0.90;99.90;;;;;;5049280;28;20028;-56
2023/12/18 06:53:58;;;;;;;28.52;10.55;;;0.90;99.90;;;;;;5049917;28;20029;-60
2023/12/18 06:56:24;;;;;;;26.02;13.65;;;0.90;99.90;;;;;;5053531;28;20013;-59
2023/12/18 06:58:49;;;;;;;25.88;10.35;;;0.80;99.90;;;;;;5043749;28;20030;-60
2023/12/18 07:01:18;;;;;;;23.92;10.88;;;0.80;99.90;;;;;;5050868;28;20505;-60
2023/12/18 07:03:43;;;;;;;28.15;11.13;;;0.60;99.90;;;;;;5047871;28;20027;-59
2023/12/18 07:06:09;;;;;;;23.90;10.00;;;0.60;99.90;;;;;;5060729;28;20017;-60
2023/12/18 07:08:34;;;;;;;24.80;10.65;;;0.50;99.90;;;;;;5047559;28;20029;-55
2023/12/18 07:11:00;;;;;;;29.05;11.23;;;0.50;99.90;;;;;;5058468;28;20020;-59
2023/12/18 07:13:26;;;;;;;31.80;11.32;;;0.50;99.90;;;;;;5050933;28;20101;-58
2023/12/18 07:15:51;;;;;;;26.58;11.50;;;0.50;99.90;;;;;;5053460;28;20497;-57
2023/12/18 07:18:17;;;;;;;24.70;11.00;;;0.60;99.90;;;;;;5052485;28;20048;-59
2023/12/18 07:20:43;;;;;;;24.52;12.05;;;0.60;99.90;;;;;;5060998;28;20096;-61
2023/12/18 07:23:10;;;;;;;24.63;10.60;;;0.70;99.90;;;;;;5051589;28;20490;-61
2023/12/18 07:25:36;;;;;;;33.35;11.95;;;0.70;99.90;;;;;;5052687;28;20115;-59
2023/12/18 07:28:01;;;;;;;24.80;10.98;;;0.70;99.90;;;;;;5050527;28;20116;-61
2023/12/18 07:30:27;;;;;;;30.35;12.27;;;0.70;99.90;;;;;;5055075;28;20137;-61
2023/12/18 07:32:52;;;;;;;29.25;12.52;;;0.70;99.90;;;;;;5052446;28;20025;-61
2023/12/18 07:35:18;;;;;;;26.90;11.23;;;0.70;99.90;;;;;;5055926;28;20021;-60
2023/12/18 07:37:44;;;;;;;31.90;11.60;;;0.70;99.90;;;;;;5054083;28;20021;-60
2023/12/18 07:40:10;;;;;;;25.90;10.57;;;0.60;99.90;;;;;;5055839;28;20071;-59
2023/12/18 07:42:36;;;;;;;31.45;12.65;;;0.60;99.90;;;;;;5055227;28;20106;-61
2023/12/18 07:45:01;;;;;;;28.75;11.73;;;0.60;99.90;;;;;;5051296;28;20479;-61
2023/12/18 07:47:27;;;;;;;34.70;13.00;;;0.60;99.90;;;;;;5050980;28;20020;-60
2023/12/18 07:49:52;;;;;;;28.50;11.65;;;0.60;99.90;;;;;;5051712;28;20105;-59
2023/12/18 07:52:18;;;;;;;26.85;10.93;;;0.60;99.90;;;;;;5044835;28;20028;-56
2023/12/18 07:54:43;;;;;;;28.75;12.52;;;0.60;99.90;;;;;;5052472;28;20476;-57
2023/12/18 07:57:09;;;;;;;29.20;12.45;;;0.50;99.90;;;;;;5047958;28;20048;-60
2023/12/18 07:59:39;;;;;;;29.80;12.38;;;0.50;99.90;;;;;;5051956;28;20021;-59
2023/12/18 08:02:08;;;;;;;30.02;12.85;;;0.60;99.90;;;;;;5046571;28;20035;-59
2023/12/18 08:04:35;;;;;;;34.53;14.20;;;0.60;99.90;;;;;;5046533;28;20027;-59
2023/12/18 08:07:01;;;;;;;35.15;12.77;;;0.70;99.90;;;;;;5040980;28;20024;-60
2023/12/18 08:09:27;;;;;;;38.60;13.75;;;0.70;99.90;;;;;;5041514;28;20613;-61
2023/12/18 08:11:53;;;;;;;32.42;12.80;;;0.70;99.90;;;;;;5039448;28;20025;-59
2023/12/18 08:14:19;;;;;;;28.85;14.07;;;0.80;99.90;;;;;;5043961;28;20035;-61
2023/12/18 08:16:45;;;;;;;31.85;14.30;;;0.90;99.90;;;;;;5048089;28;20029;-59
2023/12/18 08:19:10;;;;;;;29.33;13.93;;;0.90;99.90;;;;;;5042036;28;20040;-59
2023/12/18 08:21:36;;;;;;;33.97;13.80;;;1.00;99.90;;;;;;5049025;28;20037;-61
2023/12/18 08:24:01;;;;;;;28.40;13.43;;;1.00;99.90;;;;;;5044181;28;20063;-59
2023/12/18 08:26:27;;;;;;;31.23;12.55;;;1.00;99.90;;;;;;5042681;28;20493;-60
2023/12/18 08:28:53;;;;;;;29.77;11.80;;;1.00;99.90;;;;;;5043305;28;20036;-59
2023/12/18 08:31:18;;;;;;;36.47;12.93;;;0.90;99.90;;;;;;5044029;28;20019;-61
2023/12/18 08:33:44;;;;;;;39.72;14.10;;;0.90;99.90;;;;;;5041036;28;20545;-58
2023/12/18 08:36:09;;;;;;;26.75;13.57;;;0.90;99.90;;;;;;5047153;28;20025;-58
2023/12/18 08:38:35;;;;;;;34.28;12.35;;;0.90;99.90;;;;;;5044086;28;20087;-60
2023/12/18 08:41:01;;;;;;;34.97;12.90;;;0.90;99.90;;;;;;5047955;28;20482;-60
2023/12/18 08:43:26;;;;;;;29.83;13.07;;;1.00;99.90;;;;;;5037402;28;20030;-59
2023/12/18 08:45:52;;;;;;;33.22;12.63;;;0.90;99.90;;;;;;5047873;28;20060;-59
2023/12/18 08:48:17;;;;;;;26.15;12.00;;;1.00;99.90;;;;;;5040642;28;20013;-59
2023/12/18 08:50:43;;;;;;;31.95;12.90;;;1.00;99.90;;;;;;5044837;28;20037;-58
2023/12/18 08:53:09;;;;;;;28.00;12.48;;;1.10;99.90;;;;;;5038433;28;20030;-59
2023/12/18 08:55:39;;;;;;;30.48;12.65;;;1.10;99.90;;;;;;5047120;28;20024;-61
2023/12/18 08:58:07;;;;;;;33.53;12.93;;;1.20;99.90;;;;;;5040891;28;20028;-59
2023/12/18 09:00:32;;;;;;;37.30;13.05;;;1.20;99.90;;;;;;5045346;28;20044;-59
2023/12/18 09:02:58;;;;;;;30.52;11.93;;;1.30;99.90;;;;;;5038974;28;20061;-61
2023/12/18 09:05:24;;;;;;;35.85;13.82;;;1.30;99.90;;;;;;5047681;28;20112;-61
2023/12/18 09:07:50;;;;;;;41.72;13.77;;;1.40;99.90;;;;;;5043409;28;20654;-59
2023/12/18 09:10:17;;;;;;;38.47;13.52;;;1.50;99.90;;;;;;5047080;28;20036;-59
2023/12/18 09:12:44;;;;;;;32.03;12.60;;;1.50;99.90;;;;;;5044454;28;20055;-59
2023/12/18 09:15:10;;;;;;;28.95;12.60;;;1.60;99.90;;;;;;5047349;28;20037;-60
2023/12/18 09:17:36;;;;;;;33.10;13.50;;;1.70;99.90;;;;;;5039940;28;20058;-59
2023/12/18 09:20:02;;;;;;;33.25;13.68;;;1.80;99.90;;;;;;5048139;28;20052;-58
2023/12/18 09:22:28;;;;;;;30.55;13.50;;;1.90;99.90;;;;;;5043617;28;20025;-60
2023/12/18 09:24:53;;;;;;;26.67;13.45;;;1.90;99.90;;;;;;5044430;28;20032;-60
2023/12/18 09:27:19;;;;;;;31.77;14.60;;;2.00;99.90;;;;;;5047590;28;20429;-59
2023/12/18 09:29:45;;;;;;;34.83;12.77;;;2.20;99.90;;;;;;5040533;28;20613;-58
2023/12/18 09:32:11;;;;;;;31.55;15.10;;;2.30;99.90;;;;;;5048993;28;20482;-55
2023/12/18 09:34:36;;;;;;;30.15;14.20;;;2.30;99.90;;;;;;5045883;28;20104;-58
2023/12/18 09:37:02;;;;;;;39.38;14.02;;;2.40;99.90;;;;;;5050178;28;20022;-60
2023/12/18 09:39:28;;;;;;;35.75;13.98;;;2.50;99.90;;;;;;5043310;28;20475;-59
2023/12/18 09:42:00;;;;;;;39.78;15.77;;;2.60;99.90;;;;;;5047988;28;20109;-58
2023/12/18 09:44:26;;;;;;;38.50;15.82;;;2.70;99.90;;;;;;5037801;28;20013;-59
2023/12/18 09:46:51;;;;;;;29.80;13.95;;;2.80;99.90;;;;;;5047018;28;20095;-56
2023/12/18 09:49:17;;;;;;;46.78;18.08;;;2.90;99.90;;;;;;5040873;28;20416;-61
2023/12/18 09:51:44;;;;;;;38.20;17.50;;;3.00;99.90;;;;;;5049355;28;20017;-60
2023/12/18 09:54:11;;;;;;;35.80;15.82;;;3.10;99.90;;;;;;5046620;28;20029;-60
2023/12/18 09:56:36;;;;;;;46.97;16.83;;;3.20;99.90;;;;;;5049083;28;20036;-60
2023/12/18 09:59:02;;;;;;;49.40;17.60;;;3.30;99.90;;;;;;5045563;28;20025;-60
2023/12/18 10:01:28;;;;;;;41.40;18.17;;;3.40;99.90;;;;;;5053419;28;20363;-60
2023/12/18 10:03:54;;;;;;;45.33;18.25;;;3.40;99.90;;;;;;5041378;28;20037;-61
2023/12/18 10:06:19;;;;;;;40.83;18.25;;;3.50;99.90;;;;;;5048360;28;20041;-61
2023/12/18 10:08:48;;;;;;;59.65;20.77;;;3.60;99.90;;;;;;5050422;28;20029;-61
2023/12/18 10:11:23;;;;;;;43.58;20.08;;;3.70;99.90;;;;;;5047622;28;20016;-61
2023/12/18 10:13:51;;;;;;;42.38;20.77;;;3.80;99.90;;;;;;5041540;28;20021;-59
2023/12/18 10:16:16;;;;;;;44.13;19.60;;;3.80;99.90;;;;;;5046661;28;20024;-60
2023/12/18 10:18:42;;;;;;;54.42;20.98;;;3.90;99.90;;;;;;5044784;28;20021;-59
2023/12/18 10:21:11;;;;;;;37.13;18.75;;;4.00;99.90;;;;;;5049974;28;20017;-61
2023/12/18 10:23:38;;;;;;;42.25;19.52;;;4.10;99.90;;;;;;5046805;28;20036;-61
2023/12/18 10:26:03;;;;;;;47.20;21.05;;;4.20;99.90;;;;;;5045621;28;20071;-56
2023/12/18 10:28:29;;;;;;;57.85;21.70;;;4.30;99.90;;;;;;5051354;28;20025;-61
2023/12/18 10:30:56;;;;;;;55.60;21.10;;;4.30;99.90;;;;;;5043310;28;20033;-59
2023/12/18 10:33:21;;;;;;;43.35;19.88;;;4.50;99.90;;;;;;5046167;28;20100;-60
2023/12/18 10:35:48;;;;;;;45.40;18.90;;;4.50;99.90;;;;;;5044519;28;20373;-60
2023/12/18 10:38:19;;;;;;;47.13;19.17;;;4.60;99.90;;;;;;5052625;28;20111;-60
2023/12/18 10:40:45;;;;;;;47.97;18.65;;;4.70;99.90;;;;;;5049276;28;20465;-60
2023/12/18 10:43:16;;;;;;;37.72;19.27;;;4.80;99.90;;;;;;5047158;28;20494;-60
2023/12/18 10:45:42;;;;;;;43.60;19.15;;;4.80;99.90;;;;;;5045547;28;20037;-59
2023/12/18 10:48:11;;;;;;;42.03;19.52;;;4.90;99.90;;;;;;5054746;28;20086;-58
2023/12/18 10:50:38;;;;;;;44.97;18.95;;;4.90;99.90;;;;;;5052255;28;20025;-59
2023/12/18 10:53:04;;;;;;;46.25;18.95;;;5.00;99.90;;;;;;5054239;28;20027;-58
2023/12/18 10:55:31;;;;;;;40.47;19.67;;;5.00;99.90;;;;;;5047051;28;20475;-58
2023/12/18 10:57:59;;;;;;;35.03;16.70;;;5.00;99.90;;;;;;5048546;28;20033;-59
2023/12/18 11:00:25;;;;;;;38.38;16.92;;;5.10;99.90;;;;;;5055014;28;20035;-61
2023/12/18 11:02:51;;;;;;;39.08;17.40;;;5.20;99.90;;;;;;5052798;28;20032;-61
2023/12/18 11:05:17;;;;;;;29.45;16.80;;;5.20;99.90;;;;;;5049369;28;20027;-62
2023/12/18 11:07:43;;;;;;;38.50;16.33;;;5.20;99.90;;;;;;5046745;28;20033;-62
2023/12/18 11:10:09;;;;;;;39.05;16.88;;;5.30;99.90;;;;;;5052055;28;20035;-61
2023/12/18 11:12:38;;;;;;;32.63;15.00;;;5.20;99.90;;;;;;5052053;28;20037;-60
2023/12/18 11:15:31;;;;;;;38.63;16.67;;;5.20;99.90;;;;;;5053139;28;20028;-62
2023/12/18 11:18:17;;;;;;;29.73;15.45;;;5.30;99.90;;;;;;5047689;28;20014;-61
2023/12/18 11:20:43;;;;;;;38.10;16.80;;;5.40;99.90;;;;;;5048180;28;20017;-60
2023/12/18 11:23:11;;;;;;;38.00;15.55;;;5.60;99.90;;;;;;5049372;28;20168;-61
2023/12/18 11:25:47;;;;;;;41.05;16.67;;;5.70;99.90;;;;;;5051086;28;20502;-60
2023/12/18 11:28:12;;;;;;;36.15;18.25;;;5.70;99.90;;;;;;5050672;28;20028;-61
2023/12/18 11:30:43;;;;;;;32.85;16.67;;;5.70;99.90;;;;;;5048396;28;20039;-59
2023/12/18 11:33:10;;;;;;;32.15;15.38;;;5.70;99.90;;;;;;5052009;28;20029;-58
2023/12/18 11:35:37;;;;;;;34.28;16.25;;;5.90;99.90;;;;;;5050063;28;20390;-60
2023/12/18 11:38:08;;;;;;;38.40;15.88;;;5.90;99.90;;;;;;5047287;28;20024;-60
2023/12/18 11:40:49;;;;;;;40.83;16.45;;;6.00;99.90;;;;;;5050476;28;20033;-59
2023/12/18 11:43:38;;;;;;;36.63;15.68;;;6.10;99.90;;;;;;5051234;28;20044;-62
2023/12/18 11:46:06;;;;;;;34.75;15.90;;;6.10;99.90;;;;;;5052798;28;20112;-59
2023/12/18 11:48:33;;;;;;;28.63;15.02;;;6.10;99.90;;;;;;5053393;28;20021;-59
2023/12/18 11:51:01;;;;;;;27.13;14.60;;;6.10;99.90;;;;;;5050263;28;20479;-57
2023/12/18 11:53:26;;;;;;;30.00;15.07;;;6.10;99.90;;;;;;5047117;28;20071;-58
2023/12/18 11:55:52;;;;;;;29.50;14.40;;;6.10;99.90;;;;;;5050978;28;20028;-62
2023/12/18 11:58:19;;;;;;;31.83;15.20;;;6.10;99.90;;;;;;5054514;28;20017;-61
2023/12/18 12:00:46;;;;;;;35.88;15.55;;;6.00;99.90;;;;;;5049803;28;20100;-62
2023/12/18 12:03:15;;;;;;;38.65;15.32;;;5.90;99.90;;;;;;5052292;28;20516;-60
2023/12/18 12:05:41;;;;;;;32.13;14.13;;;5.90;99.90;;;;;;5047374;28;20582;-59
2023/12/18 12:08:07;;;;;;;34.65;15.38;;;5.90;99.90;;;;;;5054532;28;20060;-59
2023/12/18 12:10:44;;;;;;;28.55;14.68;;;5.80;99.90;;;;;;5049141;28;20043;-59
2023/12/18 12:13:20;;;;;;;31.08;16.00;;;5.80;99.90;;;;;;5051723;28;20044;-60
2023/12/18 12:15:59;;;;;;;36.70;16.77;;;5.90;99.90;;;;;;5047761;28;20033;-59
2023/12/18 12:18:34;;;;;;;31.05;16.33;;;6.00;99.90;;;;;;5046183;28;20025;-62
2023/12/18 12:21:00;;;;;;;34.80;16.60;;;6.30;99.90;;;;;;5046515;28;20014;-62
2023/12/18 12:23:26;;;;;;;34.42;14.55;;;6.50;99.90;;;;;;5048069;28;20043;-59
2023/12/18 12:26:00;;;;;;;26.38;13.30;;;6.80;99.90;;;;;;5050672;28;20151;-60
2023/12/18 12:28:29;;;;;;;27.35;13.23;;;6.90;99.90;;;;;;5051675;28;20481;-61
2023/12/18 12:30:55;;;;;;;29.13;14.45;;;7.10;99.90;;;;;;5045723;28;20086;-60
2023/12/18 12:33:20;;;;;;;27.42;13.23;;;7.30;99.90;;;;;;5051184;28;20032;-61
2023/12/18 12:35:46;;;;;;;29.60;13.38;;;7.50;99.90;;;;;;5043952;28;20417;-61